Saint Barthelemy, St. Barthelemy

6:49 AM AST on March 27, 2015 (GMT -0400)
Lorient | | Change Station
CLOSE
Current Station
Personal Weather Station
Location: Saint Barthélémy,
Elevation: 33 ft
Nearby Weather Stations

Elev 33 ft 17.91 °N, 62.82 °W | Updated 6 minutes ago

Overcast
Overcast
77.4 °F
Feels Like 79 °F
N
4.0
Wind Variable Wind from SSW
Gusts 12.0 mph

Today
High -- | Low -- °F
--% Chance of Precip.
Yesterday
High -- | Low -- °F
Precip. -- in
6:10 AM 6:23 PM
Waxing Crescent, 51% visible
Pressure 30.06 in
Visibility 6.2 miles
Clouds Mostly Cloudy 1900 ft
Heat Index 79 °F
Dew Point 69 °F
Humidity 74%
Rainfall 0.00 in
Snow Depth Not available.
UV 0 out of 12
Pollen Not available.
Air Quality Not available.
Flu Activity Not available.
METAR TNCM 271000Z 10011KT 060V130 9999 -SHRA BKN019TCU 25/21 Q1018 A3006 TEMPO SHRA RERA TCU ENE

More Conditions Fewer Conditions

Pressure 30.06 in
Visibility 6.2 miles
Clouds Mostly Cloudy 1900 ft
Heat Index 79 °F
Dew Point 69 °F
Humidity 74%
Rainfall 0.00 in
Snow Depth Not available.
UV 0 out of 12
Pollen Not available.
Air Quality Not available.
Flu Activity Not available.
METAR TNCM 271000Z 10011KT 060V130 9999 -SHRA BKN019TCU 25/21 Q1018 A3006 TEMPO SHRA RERA TCU ENE

More Conditions Fewer Conditions

10-Day Weather Forecast

Almanac

Astronomy

Mar. 27, 2015 Rise Set
Actual Time
Civil Twilight
Nautical Twilight
Astronomical Twilight
Moon
Length of Visible Light
Length of Day
Tomorrow will be .
, % of the Moon is Illuminated

Today's Extremes

Country Highs Country Lows

Community

WunderPhotos

Upload Photos

1,808,706 photos uploaded!

WunderBlogs® & News

Nearby

Air Quality

  Air Quality AQ Index Pollutant
Not available.

Snow Depth

Station Depth Elevation

Earthquake Activity

City Distance Mag. Time & Date
Minimum magnitude displayed is 2.5.

Coastal Water Temperatures

Place Temperature

Stations

Nearby Weather Stations

Station Location Temp. Windchill Dew Point Humidity Wind Precip. Elev Updated Type